sensor_id;sensor_type;location;lat;lon;timestamp;P1;durP1;ratioP1;P2;durP2;ratioP2
31262;SDS011;17892;52.080;9.006;2022-08-19T00:01:38;3.95;;;2.35;;
31262;SDS011;17892;52.080;9.006;2022-08-19T00:04:08;4.80;;;3.35;;
31262;SDS011;17892;52.080;9.006;2022-08-19T00:06:38;4.97;;;3.28;;
31262;SDS011;17892;52.080;9.006;2022-08-19T00:09:08;2.90;;;2.08;;
31262;SDS011;17892;52.080;9.006;2022-08-19T00:11:38;7.90;;;3.40;;
31262;SDS011;17892;52.080;9.006;2022-08-19T00:14:05;5.97;;;2.80;;
31262;SDS011;17892;52.080;9.006;2022-08-19T00:16:34;6.18;;;2.88;;
31262;SDS011;17892;52.080;9.006;2022-08-19T00:19:02;6.75;;;2.88;;
31262;SDS011;17892;52.080;9.006;2022-08-19T00:21:29;5.97;;;3.88;;
31262;SDS011;17892;52.080;9.006;2022-08-19T00:23:55;4.53;;;3.00;;
31262;SDS011;17892;52.080;9.006;2022-08-19T00:26:25;6.30;;;3.60;;
31262;SDS011;17892;52.080;9.006;2022-08-19T00:28:53;7.95;;;3.78;;
31262;SDS011;17892;52.080;9.006;2022-08-19T00:31:20;9.77;;;3.97;;
31262;SDS011;17892;52.080;9.006;2022-08-19T00:33:46;9.38;;;3.72;;
31262;SDS011;17892;52.080;9.006;2022-08-19T00:36:15;6.50;;;3.80;;
31262;SDS011;17892;52.080;9.006;2022-08-19T00:38:41;7.57;;;4.45;;
31262;SDS011;17892;52.080;9.006;2022-08-19T00:41:08;4.93;;;3.80;;
31262;SDS011;17892;52.080;9.006;2022-08-19T00:43:42;4.93;;;3.40;;
31262;SDS011;17892;52.080;9.006;2022-08-19T00:46:08;6.25;;;3.60;;
31262;SDS011;17892;52.080;9.006;2022-08-19T00:48:34;8.05;;;4.05;;
31262;SDS011;17892;52.080;9.006;2022-08-19T00:51:01;6.25;;;3.53;;
31262;SDS011;17892;52.080;9.006;2022-08-19T00:53:29;6.95;;;4.28;;
31262;SDS011;17892;52.080;9.006;2022-08-19T00:55:59;5.28;;;3.17;;
31262;SDS011;17892;52.080;9.006;2022-08-19T00:58:29;8.00;;;4.28;;
31262;SDS011;17892;52.080;9.006;2022-08-19T01:00:58;7.13;;;4.70;;
31262;SDS011;17892;52.080;9.006;2022-08-19T01:03:24;4.78;;;3.05;;
31262;SDS011;17892;52.080;9.006;2022-08-19T01:05:50;5.68;;;3.35;;
31262;SDS011;17892;52.080;9.006;2022-08-19T01:08:17;5.13;;;2.75;;
31262;SDS011;17892;52.080;9.006;2022-08-19T01:10:46;6.43;;;3.28;;
31262;SDS011;17892;52.080;9.006;2022-08-19T01:13:20;6.55;;;3.53;;
31262;SDS011;17892;52.080;9.006;2022-08-19T01:15:52;7.80;;;3.75;;
31262;SDS011;17892;52.080;9.006;2022-08-19T01:18:22;5.75;;;4.07;;
31262;SDS011;17892;52.080;9.006;2022-08-19T01:20:50;3.80;;;2.53;;
31262;SDS011;17892;52.080;9.006;2022-08-19T01:23:19;7.15;;;3.33;;
31262;SDS011;17892;52.080;9.006;2022-08-19T01:25:46;7.35;;;4.57;;
31262;SDS011;17892;52.080;9.006;2022-08-19T01:28:19;6.13;;;3.35;;
31262;SDS011;17892;52.080;9.006;2022-08-19T01:30:50;4.90;;;3.83;;
31262;SDS011;17892;52.080;9.006;2022-08-19T01:33:17;4.82;;;3.75;;
31262;SDS011;17892;52.080;9.006;2022-08-19T01:35:44;8.95;;;4.05;;
31262;SDS011;17892;52.080;9.006;2022-08-19T01:38:18;4.35;;;3.13;;
31262;SDS011;17892;52.080;9.006;2022-08-19T01:40:47;9.73;;;4.47;;
31262;SDS011;17892;52.080;9.006;2022-08-19T01:43:13;5.85;;;3.65;;
31262;SDS011;17892;52.080;9.006;2022-08-19T01:45:40;5.00;;;3.13;;
31262;SDS011;17892;52.080;9.006;2022-08-19T01:48:06;5.53;;;4.10;;
31262;SDS011;17892;52.080;9.006;2022-08-19T01:50:32;7.63;;;3.45;;
31262;SDS011;17892;52.080;9.006;2022-08-19T01:53:01;4.28;;;2.72;;
31262;SDS011;17892;52.080;9.006;2022-08-19T01:55:29;4.85;;;3.55;;
31262;SDS011;17892;52.080;9.006;2022-08-19T01:57:56;12.80;;;4.35;;
31262;SDS011;17892;52.080;9.006;2022-08-19T02:00:26;10.40;;;4.45;;
31262;SDS011;17892;52.080;9.006;2022-08-19T02:02:55;5.18;;;3.58;;
31262;SDS011;17892;52.080;9.006;2022-08-19T02:05:21;7.57;;;4.43;;
31262;SDS011;17892;52.080;9.006;2022-08-19T02:07:48;7.10;;;4.00;;
31262;SDS011;17892;52.080;9.006;2022-08-19T02:10:15;6.20;;;4.65;;
31262;SDS011;17892;52.080;9.006;2022-08-19T02:12:46;9.50;;;4.10;;
31262;SDS011;17892;52.080;9.006;2022-08-19T02:15:12;9.13;;;4.18;;
31262;SDS011;17892;52.080;9.006;2022-08-19T02:17:38;6.93;;;4.25;;
31262;SDS011;17892;52.080;9.006;2022-08-19T02:20:04;6.18;;;4.50;;
31262;SDS011;17892;52.080;9.006;2022-08-19T02:22:32;6.72;;;4.00;;
31262;SDS011;17892;52.080;9.006;2022-08-19T02:24:58;6.88;;;3.45;;
31262;SDS011;17892;52.080;9.006;2022-08-19T02:27:23;6.60;;;4.05;;
31262;SDS011;17892;52.080;9.006;2022-08-19T02:29:50;7.15;;;3.88;;
31262;SDS011;17892;52.080;9.006;2022-08-19T02:32:17;5.57;;;3.80;;
31262;SDS011;17892;52.080;9.006;2022-08-19T02:34:44;4.55;;;3.78;;
31262;SDS011;17892;52.080;9.006;2022-08-19T02:37:11;8.52;;;5.18;;
31262;SDS011;17892;52.080;9.006;2022-08-19T02:39:57;6.85;;;3.70;;
31262;SDS011;17892;52.080;9.006;2022-08-19T02:42:23;6.15;;;3.75;;
31262;SDS011;17892;52.080;9.006;2022-08-19T02:44:50;5.72;;;4.80;;
31262;SDS011;17892;52.080;9.006;2022-08-19T02:47:16;6.03;;;4.38;;
31262;SDS011;17892;52.080;9.006;2022-08-19T02:49:43;8.30;;;3.50;;
31262;SDS011;17892;52.080;9.006;2022-08-19T02:52:10;7.50;;;4.95;;
31262;SDS011;17892;52.080;9.006;2022-08-19T02:54:36;6.40;;;3.78;;
31262;SDS011;17892;52.080;9.006;2022-08-19T02:57:03;7.28;;;4.75;;
31262;SDS011;17892;52.080;9.006;2022-08-19T02:59:30;6.72;;;4.32;;
31262;SDS011;17892;52.080;9.006;2022-08-19T03:01:56;7.22;;;5.22;;
31262;SDS011;17892;52.080;9.006;2022-08-19T03:04:22;4.93;;;4.13;;
31262;SDS011;17892;52.080;9.006;2022-08-19T03:06:49;7.10;;;4.15;;
31262;SDS011;17892;52.080;9.006;2022-08-19T03:09:15;6.72;;;3.70;;
31262;SDS011;17892;52.080;9.006;2022-08-19T03:11:43;6.90;;;5.05;;
31262;SDS011;17892;52.080;9.006;2022-08-19T03:14:09;5.20;;;3.70;;
31262;SDS011;17892;52.080;9.006;2022-08-19T03:16:46;8.15;;;5.05;;
31262;SDS011;17892;52.080;9.006;2022-08-19T03:19:15;6.45;;;5.18;;
31262;SDS011;17892;52.080;9.006;2022-08-19T03:21:44;5.80;;;3.97;;
31262;SDS011;17892;52.080;9.006;2022-08-19T03:24:11;6.05;;;4.57;;
31262;SDS011;17892;52.080;9.006;2022-08-19T03:26:42;5.88;;;4.18;;
31262;SDS011;17892;52.080;9.006;2022-08-19T03:29:13;7.85;;;4.85;;
31262;SDS011;17892;52.080;9.006;2022-08-19T03:31:42;7.80;;;4.60;;
31262;SDS011;17892;52.080;9.006;2022-08-19T03:34:14;6.72;;;4.22;;
31262;SDS011;17892;52.080;9.006;2022-08-19T03:36:45;7.78;;;4.63;;
31262;SDS011;17892;52.080;9.006;2022-08-19T03:39:11;5.57;;;4.00;;
31262;SDS011;17892;52.080;9.006;2022-08-19T03:41:39;7.53;;;4.55;;
31262;SDS011;17892;52.080;9.006;2022-08-19T03:44:08;11.32;;;6.15;;
31262;SDS011;17892;52.080;9.006;2022-08-19T03:46:34;6.40;;;4.88;;
31262;SDS011;17892;52.080;9.006;2022-08-19T03:49:02;10.07;;;5.88;;
31262;SDS011;17892;52.080;9.006;2022-08-19T03:51:34;6.65;;;5.43;;
31262;SDS011;17892;52.080;9.006;2022-08-19T03:54:03;8.32;;;5.75;;
31262;SDS011;17892;52.080;9.006;2022-08-19T03:56:34;10.30;;;5.57;;
31262;SDS011;17892;52.080;9.006;2022-08-19T03:59:01;10.25;;;5.07;;
31262;SDS011;17892;52.080;9.006;2022-08-19T04:01:29;5.43;;;4.57;;
31262;SDS011;17892;52.080;9.006;2022-08-19T04:03:56;5.93;;;4.28;;
31262;SDS011;17892;52.080;9.006;2022-08-19T04:06:27;11.60;;;4.88;;
31262;SDS011;17892;52.080;9.006;2022-08-19T04:08:57;7.90;;;5.03;;
31262;SDS011;17892;52.080;9.006;2022-08-19T04:11:28;11.75;;;6.45;;
31262;SDS011;17892;52.080;9.006;2022-08-19T04:13:58;9.10;;;5.15;;
31262;SDS011;17892;52.080;9.006;2022-08-19T04:16:25;7.40;;;5.57;;
31262;SDS011;17892;52.080;9.006;2022-08-19T04:18:54;9.70;;;6.78;;
31262;SDS011;17892;52.080;9.006;2022-08-19T04:21:22;7.65;;;5.70;;
31262;SDS011;17892;52.080;9.006;2022-08-19T04:23:51;10.75;;;6.00;;
31262;SDS011;17892;52.080;9.006;2022-08-19T04:26:18;6.90;;;5.20;;
31262;SDS011;17892;52.080;9.006;2022-08-19T04:28:51;9.45;;;6.25;;
31262;SDS011;17892;52.080;9.006;2022-08-19T04:31:18;10.52;;;6.22;;
31262;SDS011;17892;52.080;9.006;2022-08-19T04:33:50;9.77;;;6.15;;
31262;SDS011;17892;52.080;9.006;2022-08-19T04:36:19;5.95;;;4.80;;
31262;SDS011;17892;52.080;9.006;2022-08-19T04:38:49;7.13;;;5.13;;
31262;SDS011;17892;52.080;9.006;2022-08-19T04:41:16;11.68;;;6.18;;
31262;SDS011;17892;52.080;9.006;2022-08-19T04:44:00;7.60;;;4.50;;
31262;SDS011;17892;52.080;9.006;2022-08-19T04:46:27;10.02;;;6.85;;
31262;SDS011;17892;52.080;9.006;2022-08-19T04:48:55;7.07;;;5.32;;
31262;SDS011;17892;52.080;9.006;2022-08-19T04:51:22;7.38;;;5.47;;
31262;SDS011;17892;52.080;9.006;2022-08-19T04:53:48;11.65;;;6.20;;
31262;SDS011;17892;52.080;9.006;2022-08-19T04:56:15;6.38;;;4.55;;
31262;SDS011;17892;52.080;9.006;2022-08-19T04:58:44;9.88;;;5.05;;
31262;SDS011;17892;52.080;9.006;2022-08-19T05:01:17;7.63;;;5.47;;
31262;SDS011;17892;52.080;9.006;2022-08-19T05:03:47;7.25;;;5.30;;
31262;SDS011;17892;52.080;9.006;2022-08-19T05:06:14;10.35;;;5.70;;
31262;SDS011;17892;52.080;9.006;2022-08-19T05:08:42;8.98;;;5.63;;
31262;SDS011;17892;52.080;9.006;2022-08-19T05:13:50;6.82;;;5.20;;
31262;SDS011;17892;52.080;9.006;2022-08-19T05:16:17;5.63;;;4.28;;
31262;SDS011;17892;52.080;9.006;2022-08-19T05:18:46;7.10;;;4.78;;
31262;SDS011;17892;52.080;9.006;2022-08-19T05:21:32;5.32;;;4.10;;
31262;SDS011;17892;52.080;9.006;2022-08-19T05:24:18;4.55;;;3.90;;
31262;SDS011;17892;52.080;9.006;2022-08-19T05:26:45;6.30;;;3.80;;
31262;SDS011;17892;52.080;9.006;2022-08-19T05:29:15;4.78;;;3.00;;
31262;SDS011;17892;52.080;9.006;2022-08-19T05:31:45;4.68;;;3.65;;
31262;SDS011;17892;52.080;9.006;2022-08-19T05:34:14;3.33;;;2.10;;
31262;SDS011;17892;52.080;9.006;2022-08-19T05:36:41;5.38;;;3.03;;
31262;SDS011;17892;52.080;9.006;2022-08-19T05:39:11;5.57;;;2.85;;
31262;SDS011;17892;52.080;9.006;2022-08-19T05:41:44;5.13;;;2.78;;
31262;SDS011;17892;52.080;9.006;2022-08-19T05:44:14;4.15;;;2.85;;
31262;SDS011;17892;52.080;9.006;2022-08-19T05:46:42;3.58;;;2.78;;
31262;SDS011;17892;52.080;9.006;2022-08-19T05:49:12;3.83;;;3.20;;
31262;SDS011;17892;52.080;9.006;2022-08-19T05:51:40;3.95;;;3.08;;
31262;SDS011;17892;52.080;9.006;2022-08-19T05:54:06;3.63;;;2.15;;
31262;SDS011;17892;52.080;9.006;2022-08-19T05:56:33;3.97;;;2.78;;
31262;SDS011;17892;52.080;9.006;2022-08-19T05:59:03;3.08;;;2.38;;
31262;SDS011;17892;52.080;9.006;2022-08-19T06:01:33;4.28;;;2.25;;
31262;SDS011;17892;52.080;9.006;2022-08-19T06:04:00;3.13;;;1.85;;
31262;SDS011;17892;52.080;9.006;2022-08-19T06:06:27;2.90;;;2.10;;
31262;SDS011;17892;52.080;9.006;2022-08-19T06:08:53;4.78;;;2.60;;
31262;SDS011;17892;52.080;9.006;2022-08-19T06:11:21;2.90;;;2.08;;
31262;SDS011;17892;52.080;9.006;2022-08-19T06:14:01;3.65;;;1.90;;
31262;SDS011;17892;52.080;9.006;2022-08-19T06:16:34;2.63;;;2.28;;
31262;SDS011;17892;52.080;9.006;2022-08-19T06:19:04;4.45;;;2.28;;
31262;SDS011;17892;52.080;9.006;2022-08-19T06:21:34;4.13;;;2.10;;
31262;SDS011;17892;52.080;9.006;2022-08-19T06:24:02;4.00;;;1.73;;
31262;SDS011;17892;52.080;9.006;2022-08-19T06:26:30;2.58;;;1.65;;
31262;SDS011;17892;52.080;9.006;2022-08-19T06:28:56;3.38;;;1.88;;
31262;SDS011;17892;52.080;9.006;2022-08-19T06:31:25;2.47;;;1.55;;
31262;SDS011;17892;52.080;9.006;2022-08-19T06:33:53;3.72;;;1.95;;
31262;SDS011;17892;52.080;9.006;2022-08-19T06:38:54;5.28;;;2.30;;
31262;SDS011;17892;52.080;9.006;2022-08-19T06:41:22;3.13;;;1.90;;
31262;SDS011;17892;52.080;9.006;2022-08-19T06:43:49;5.40;;;2.63;;
31262;SDS011;17892;52.080;9.006;2022-08-19T06:46:16;6.45;;;3.15;;
31262;SDS011;17892;52.080;9.006;2022-08-19T06:48:43;3.22;;;1.90;;
31262;SDS011;17892;52.080;9.006;2022-08-19T06:51:09;5.82;;;1.92;;
31262;SDS011;17892;52.080;9.006;2022-08-19T06:53:35;2.35;;;1.88;;
31262;SDS011;17892;52.080;9.006;2022-08-19T06:56:01;4.35;;;2.38;;
31262;SDS011;17892;52.080;9.006;2022-08-19T06:58:30;2.97;;;2.17;;
31262;SDS011;17892;52.080;9.006;2022-08-19T07:00:58;2.85;;;2.20;;
31262;SDS011;17892;52.080;9.006;2022-08-19T07:03:31;3.30;;;2.13;;
31262;SDS011;17892;52.080;9.006;2022-08-19T07:06:09;5.15;;;3.15;;
31262;SDS011;17892;52.080;9.006;2022-08-19T07:08:40;4.03;;;2.10;;
31262;SDS011;17892;52.080;9.006;2022-08-19T07:11:08;3.60;;;1.77;;
31262;SDS011;17892;52.080;9.006;2022-08-19T07:13:35;3.00;;;2.03;;
31262;SDS011;17892;52.080;9.006;2022-08-19T07:16:03;2.90;;;1.92;;
31262;SDS011;17892;52.080;9.006;2022-08-19T07:18:33;2.80;;;1.73;;
31262;SDS011;17892;52.080;9.006;2022-08-19T07:21:05;4.68;;;2.60;;
31262;SDS011;17892;52.080;9.006;2022-08-19T07:23:38;3.15;;;1.98;;
31262;SDS011;17892;52.080;9.006;2022-08-19T07:26:08;3.78;;;2.25;;
31262;SDS011;17892;52.080;9.006;2022-08-19T07:28:38;3.88;;;2.17;;
31262;SDS011;17892;52.080;9.006;2022-08-19T07:31:07;4.35;;;1.88;;
31262;SDS011;17892;52.080;9.006;2022-08-19T07:33:37;3.60;;;1.90;;
31262;SDS011;17892;52.080;9.006;2022-08-19T07:36:04;2.05;;;1.33;;
31262;SDS011;17892;52.080;9.006;2022-08-19T07:38:32;3.72;;;2.00;;
31262;SDS011;17892;52.080;9.006;2022-08-19T07:40:59;4.53;;;1.98;;
31262;SDS011;17892;52.080;9.006;2022-08-19T07:43:25;2.72;;;2.03;;
31262;SDS011;17892;52.080;9.006;2022-08-19T07:45:52;2.90;;;2.25;;
31262;SDS011;17892;52.080;9.006;2022-08-19T07:48:21;2.53;;;2.05;;
31262;SDS011;17892;52.080;9.006;2022-08-19T07:50:56;3.22;;;2.00;;
31262;SDS011;17892;52.080;9.006;2022-08-19T07:53:27;2.38;;;1.67;;
31262;SDS011;17892;52.080;9.006;2022-08-19T07:55:54;3.58;;;2.22;;
31262;SDS011;17892;52.080;9.006;2022-08-19T07:58:20;3.22;;;1.95;;
31262;SDS011;17892;52.080;9.006;2022-08-19T08:00:47;5.45;;;2.42;;
31262;SDS011;17892;52.080;9.006;2022-08-19T08:03:16;2.60;;;2.25;;
31262;SDS011;17892;52.080;9.006;2022-08-19T08:05:44;2.70;;;1.75;;
31262;SDS011;17892;52.080;9.006;2022-08-19T08:08:29;4.22;;;2.72;;
31262;SDS011;17892;52.080;9.006;2022-08-19T08:11:01;4.20;;;2.63;;
31262;SDS011;17892;52.080;9.006;2022-08-19T08:13:28;2.05;;;1.50;;
31262;SDS011;17892;52.080;9.006;2022-08-19T08:15:54;3.13;;;1.77;;
31262;SDS011;17892;52.080;9.006;2022-08-19T08:18:21;2.60;;;1.65;;
31262;SDS011;17892;52.080;9.006;2022-08-19T08:20:50;2.80;;;1.70;;
31262;SDS011;17892;52.080;9.006;2022-08-19T08:23:16;1.92;;;1.70;;
31262;SDS011;17892;52.080;9.006;2022-08-19T08:25:49;3.17;;;1.90;;
31262;SDS011;17892;52.080;9.006;2022-08-19T08:28:17;3.63;;;1.60;;
31262;SDS011;17892;52.080;9.006;2022-08-19T08:30:43;4.03;;;1.90;;
31262;SDS011;17892;52.080;9.006;2022-08-19T08:33:12;3.55;;;1.98;;
31262;SDS011;17892;52.080;9.006;2022-08-19T08:35:40;2.45;;;1.63;;
31262;SDS011;17892;52.080;9.006;2022-08-19T08:38:10;2.22;;;1.55;;
31262;SDS011;17892;52.080;9.006;2022-08-19T08:43:22;3.67;;;1.85;;
31262;SDS011;17892;52.080;9.006;2022-08-19T08:46:00;2.92;;;2.10;;
31262;SDS011;17892;52.080;9.006;2022-08-19T08:51:14;2.75;;;1.60;;
31262;SDS011;17892;52.080;9.006;2022-08-19T08:53:46;2.75;;;2.03;;
31262;SDS011;17892;52.080;9.006;2022-08-19T08:56:16;2.45;;;1.42;;
31262;SDS011;17892;52.080;9.006;2022-08-19T08:58:48;2.70;;;1.77;;
31262;SDS011;17892;52.080;9.006;2022-08-19T09:01:23;3.90;;;2.00;;
31262;SDS011;17892;52.080;9.006;2022-08-19T09:03:49;3.00;;;1.63;;
31262;SDS011;17892;52.080;9.006;2022-08-19T09:06:33;1.25;;;1.00;;
31262;SDS011;17892;52.080;9.006;2022-08-19T09:09:05;3.65;;;1.30;;
31262;SDS011;17892;52.080;9.006;2022-08-19T09:17:29;3.58;;;1.45;;
31262;SDS011;17892;52.080;9.006;2022-08-19T09:19:57;2.63;;;1.55;;
31262;SDS011;17892;52.080;9.006;2022-08-19T09:22:32;1.52;;;1.40;;
31262;SDS011;17892;52.080;9.006;2022-08-19T09:25:00;1.73;;;1.10;;
31262;SDS011;17892;52.080;9.006;2022-08-19T09:27:26;1.70;;;1.08;;
31262;SDS011;17892;52.080;9.006;2022-08-19T09:29:53;5.50;;;1.42;;
31262;SDS011;17892;52.080;9.006;2022-08-19T09:32:20;3.15;;;1.20;;
31262;SDS011;17892;52.080;9.006;2022-08-19T09:34:47;2.35;;;1.20;;
31262;SDS011;17892;52.080;9.006;2022-08-19T09:37:13;2.05;;;1.20;;
31262;SDS011;17892;52.080;9.006;2022-08-19T09:39:39;1.92;;;1.20;;
31262;SDS011;17892;52.080;9.006;2022-08-19T09:42:06;1.20;;;0.93;;
31262;SDS011;17892;52.080;9.006;2022-08-19T09:44:36;1.90;;;1.03;;
31262;SDS011;17892;52.080;9.006;2022-08-19T09:47:03;1.90;;;1.27;;
31262;SDS011;17892;52.080;9.006;2022-08-19T09:49:29;1.17;;;0.77;;
31262;SDS011;17892;52.080;9.006;2022-08-19T09:51:56;3.38;;;0.95;;
31262;SDS011;17892;52.080;9.006;2022-08-19T09:54:22;2.85;;;1.02;;
31262;SDS011;17892;52.080;9.006;2022-08-19T09:56:49;1.38;;;0.70;;
31262;SDS011;17892;52.080;9.006;2022-08-19T09:59:15;1.05;;;0.75;;
31262;SDS011;17892;52.080;9.006;2022-08-19T10:01:41;1.45;;;0.75;;
31262;SDS011;17892;52.080;9.006;2022-08-19T10:04:07;2.53;;;0.63;;
31262;SDS011;17892;52.080;9.006;2022-08-19T10:06:33;0.82;;;0.60;;
31262;SDS011;17892;52.080;9.006;2022-08-19T10:09:02;2.08;;;0.82;;
31262;SDS011;17892;52.080;9.006;2022-08-19T10:11:31;1.23;;;0.73;;
31262;SDS011;17892;52.080;9.006;2022-08-19T10:13:58;0.52;;;0.40;;
31262;SDS011;17892;52.080;9.006;2022-08-19T10:16:25;1.15;;;0.57;;
31262;SDS011;17892;52.080;9.006;2022-08-19T10:18:51;1.02;;;0.60;;
31262;SDS011;17892;52.080;9.006;2022-08-19T10:21:19;0.85;;;0.55;;
31262;SDS011;17892;52.080;9.006;2022-08-19T10:23:50;1.10;;;0.80;;
31262;SDS011;17892;52.080;9.006;2022-08-19T10:26:20;1.17;;;0.80;;
31262;SDS011;17892;52.080;9.006;2022-08-19T10:28:50;1.08;;;0.73;;
31262;SDS011;17892;52.080;9.006;2022-08-19T10:31:19;1.63;;;0.55;;
31262;SDS011;17892;52.080;9.006;2022-08-19T10:33:51;1.38;;;0.50;;
31262;SDS011;17892;52.080;9.006;2022-08-19T10:36:23;1.60;;;0.50;;
31262;SDS011;17892;52.080;9.006;2022-08-19T10:38:53;2.25;;;0.50;;
31262;SDS011;17892;52.080;9.006;2022-08-19T10:41:24;1.35;;;0.80;;
31262;SDS011;17892;52.080;9.006;2022-08-19T10:43:53;0.40;;;0.32;;
31262;SDS011;17892;52.080;9.006;2022-08-19T10:46:22;0.70;;;0.50;;
31262;SDS011;17892;52.080;9.006;2022-08-19T10:48:51;0.30;;;0.30;;
31262;SDS011;17892;52.080;9.006;2022-08-19T10:51:17;1.77;;;0.57;;
31262;SDS011;17892;52.080;9.006;2022-08-19T10:54:02;1.40;;;1.02;;
31262;SDS011;17892;52.080;9.006;2022-08-19T10:56:29;0.68;;;0.40;;
31262;SDS011;17892;52.080;9.006;2022-08-19T10:59:14;2.15;;;0.60;;
31262;SDS011;17892;52.080;9.006;2022-08-19T11:01:43;0.95;;;0.52;;
31262;SDS011;17892;52.080;9.006;2022-08-19T11:04:10;1.25;;;0.80;;
31262;SDS011;17892;52.080;9.006;2022-08-19T11:06:39;1.65;;;0.73;;
31262;SDS011;17892;52.080;9.006;2022-08-19T11:09:08;0.60;;;0.43;;
31262;SDS011;17892;52.080;9.006;2022-08-19T11:11:35;1.25;;;0.75;;
31262;SDS011;17892;52.080;9.006;2022-08-19T11:14:08;0.82;;;0.35;;
31262;SDS011;17892;52.080;9.006;2022-08-19T11:16:40;0.80;;;0.50;;
31262;SDS011;17892;52.080;9.006;2022-08-19T11:19:08;1.50;;;0.60;;
31262;SDS011;17892;52.080;9.006;2022-08-19T11:21:38;1.05;;;0.63;;
31262;SDS011;17892;52.080;9.006;2022-08-19T11:24:07;0.88;;;0.50;;
31262;SDS011;17892;52.080;9.006;2022-08-19T11:26:36;3.58;;;0.90;;
31262;SDS011;17892;52.080;9.006;2022-08-19T11:29:04;1.40;;;0.47;;
31262;SDS011;17892;52.080;9.006;2022-08-19T11:31:34;1.15;;;0.57;;
31262;SDS011;17892;52.080;9.006;2022-08-19T11:34:03;1.05;;;0.55;;
31262;SDS011;17892;52.080;9.006;2022-08-19T11:36:32;1.02;;;0.50;;
31262;SDS011;17892;52.080;9.006;2022-08-19T11:39:03;2.03;;;0.80;;
31262;SDS011;17892;52.080;9.006;2022-08-19T11:41:31;0.88;;;0.68;;
31262;SDS011;17892;52.080;9.006;2022-08-19T11:43:57;1.08;;;0.70;;
31262;SDS011;17892;52.080;9.006;2022-08-19T11:46:23;1.58;;;0.65;;
31262;SDS011;17892;52.080;9.006;2022-08-19T11:48:54;0.52;;;0.40;;
31262;SDS011;17892;52.080;9.006;2022-08-19T11:51:22;2.05;;;0.73;;
31262;SDS011;17892;52.080;9.006;2022-08-19T11:53:49;0.68;;;0.40;;
31262;SDS011;17892;52.080;9.006;2022-08-19T11:56:17;1.25;;;0.47;;
31262;SDS011;17892;52.080;9.006;2022-08-19T11:58:43;0.47;;;0.40;;
31262;SDS011;17892;52.080;9.006;2022-08-19T12:01:10;0.73;;;0.50;;
31262;SDS011;17892;52.080;9.006;2022-08-19T12:03:38;2.42;;;0.60;;
31262;SDS011;17892;52.080;9.006;2022-08-19T12:06:05;1.10;;;0.55;;
31262;SDS011;17892;52.080;9.006;2022-08-19T12:08:33;1.75;;;0.80;;
31262;SDS011;17892;52.080;9.006;2022-08-19T12:10:59;0.63;;;0.55;;
31262;SDS011;17892;52.080;9.006;2022-08-19T12:13:28;1.60;;;0.70;;
31262;SDS011;17892;52.080;9.006;2022-08-19T12:15:55;1.05;;;0.47;;
31262;SDS011;17892;52.080;9.006;2022-08-19T12:18:21;1.00;;;0.60;;
31262;SDS011;17892;52.080;9.006;2022-08-19T12:20:50;1.65;;;1.02;;
31262;SDS011;17892;52.080;9.006;2022-08-19T12:23:18;1.48;;;0.55;;
31262;SDS011;17892;52.080;9.006;2022-08-19T12:25:44;0.65;;;0.50;;
31262;SDS011;17892;52.080;9.006;2022-08-19T12:28:15;0.50;;;0.40;;
31262;SDS011;17892;52.080;9.006;2022-08-19T12:30:42;1.15;;;0.50;;
31262;SDS011;17892;52.080;9.006;2022-08-19T12:33:08;0.75;;;0.70;;
31262;SDS011;17892;52.080;9.006;2022-08-19T12:35:33;2.13;;;1.02;;
31262;SDS011;17892;52.080;9.006;2022-08-19T12:37:59;0.70;;;0.60;;
31262;SDS011;17892;52.080;9.006;2022-08-19T12:40:26;2.30;;;0.45;;
31262;SDS011;17892;52.080;9.006;2022-08-19T12:42:52;1.45;;;1.05;;
31262;SDS011;17892;52.080;9.006;2022-08-19T12:45:19;1.38;;;0.80;;
31262;SDS011;17892;52.080;9.006;2022-08-19T12:47:44;1.10;;;0.77;;
31262;SDS011;17892;52.080;9.006;2022-08-19T12:50:11;1.13;;;0.93;;
31262;SDS011;17892;52.080;9.006;2022-08-19T12:52:37;1.73;;;0.82;;
31262;SDS011;17892;52.080;9.006;2022-08-19T12:55:04;1.52;;;0.93;;
31262;SDS011;17892;52.080;9.006;2022-08-19T12:57:32;1.98;;;1.05;;
31262;SDS011;17892;52.080;9.006;2022-08-19T13:00:00;2.83;;;0.65;;
31262;SDS011;17892;52.080;9.006;2022-08-19T13:02:39;1.73;;;0.70;;
31262;SDS011;17892;52.080;9.006;2022-08-19T13:05:10;2.88;;;1.15;;
31262;SDS011;17892;52.080;9.006;2022-08-19T13:07:39;2.25;;;0.43;;
31262;SDS011;17892;52.080;9.006;2022-08-19T13:10:06;0.80;;;0.63;;
31262;SDS011;17892;52.080;9.006;2022-08-19T13:12:34;0.63;;;0.50;;
31262;SDS011;17892;52.080;9.006;2022-08-19T13:15:01;0.63;;;0.30;;
31262;SDS011;17892;52.080;9.006;2022-08-19T13:17:26;0.95;;;0.60;;
31262;SDS011;17892;52.080;9.006;2022-08-19T13:19:52;1.10;;;0.75;;
31262;SDS011;17892;52.080;9.006;2022-08-19T13:22:18;1.00;;;0.60;;
31262;SDS011;17892;52.080;9.006;2022-08-19T13:24:43;0.70;;;0.70;;
31262;SDS011;17892;52.080;9.006;2022-08-19T13:27:09;0.98;;;0.65;;
31262;SDS011;17892;52.080;9.006;2022-08-19T13:29:35;0.68;;;0.52;;
31262;SDS011;17892;52.080;9.006;2022-08-19T13:32:19;1.48;;;0.60;;
31262;SDS011;17892;52.080;9.006;2022-08-19T13:35:04;1.73;;;0.57;;
31262;SDS011;17892;52.080;9.006;2022-08-19T13:37:30;1.10;;;0.55;;
31262;SDS011;17892;52.080;9.006;2022-08-19T13:40:08;1.42;;;0.55;;
31262;SDS011;17892;52.080;9.006;2022-08-19T13:42:47;2.22;;;0.38;;
31262;SDS011;17892;52.080;9.006;2022-08-19T13:45:16;0.70;;;0.50;;
31262;SDS011;17892;52.080;9.006;2022-08-19T13:47:47;0.88;;;0.57;;
31262;SDS011;17892;52.080;9.006;2022-08-19T13:50:16;1.92;;;1.05;;
31262;SDS011;17892;52.080;9.006;2022-08-19T13:52:51;0.95;;;0.68;;
31262;SDS011;17892;52.080;9.006;2022-08-19T13:55:18;0.80;;;0.50;;
31262;SDS011;17892;52.080;9.006;2022-08-19T13:57:44;2.75;;;0.70;;
31262;SDS011;17892;52.080;9.006;2022-08-19T14:00:12;1.00;;;0.57;;
31262;SDS011;17892;52.080;9.006;2022-08-19T14:02:43;0.88;;;0.52;;
31262;SDS011;17892;52.080;9.006;2022-08-19T14:05:16;1.00;;;0.63;;
31262;SDS011;17892;52.080;9.006;2022-08-19T14:07:43;0.85;;;0.47;;
31262;SDS011;17892;52.080;9.006;2022-08-19T14:10:09;1.10;;;0.60;;
31262;SDS011;17892;52.080;9.006;2022-08-19T14:12:38;0.85;;;0.68;;
31262;SDS011;17892;52.080;9.006;2022-08-19T14:15:04;1.17;;;0.85;;
31262;SDS011;17892;52.080;9.006;2022-08-19T14:17:33;1.08;;;0.60;;
31262;SDS011;17892;52.080;9.006;2022-08-19T14:20:00;1.23;;;0.70;;
31262;SDS011;17892;52.080;9.006;2022-08-19T14:22:32;2.40;;;0.70;;
31262;SDS011;17892;52.080;9.006;2022-08-19T14:25:03;1.00;;;0.70;;
31262;SDS011;17892;52.080;9.006;2022-08-19T14:27:38;1.20;;;0.60;;
31262;SDS011;17892;52.080;9.006;2022-08-19T14:30:05;1.02;;;0.70;;
31262;SDS011;17892;52.080;9.006;2022-08-19T14:32:34;0.45;;;0.38;;
31262;SDS011;17892;52.080;9.006;2022-08-19T14:35:00;0.88;;;0.50;;
31262;SDS011;17892;52.080;9.006;2022-08-19T14:37:27;0.85;;;0.80;;
31262;SDS011;17892;52.080;9.006;2022-08-19T14:39:53;1.20;;;0.70;;
31262;SDS011;17892;52.080;9.006;2022-08-19T14:42:18;0.93;;;0.73;;
31262;SDS011;17892;52.080;9.006;2022-08-19T14:44:44;1.00;;;0.80;;
31262;SDS011;17892;52.080;9.006;2022-08-19T14:47:10;1.88;;;0.95;;
31262;SDS011;17892;52.080;9.006;2022-08-19T14:49:36;1.67;;;0.80;;
31262;SDS011;17892;52.080;9.006;2022-08-19T14:52:03;1.38;;;0.50;;
31262;SDS011;17892;52.080;9.006;2022-08-19T14:54:29;1.42;;;0.80;;
31262;SDS011;17892;52.080;9.006;2022-08-19T14:56:55;0.95;;;0.63;;
31262;SDS011;17892;52.080;9.006;2022-08-19T14:59:21;1.63;;;0.90;;
31262;SDS011;17892;52.080;9.006;2022-08-19T15:01:46;1.45;;;0.70;;
31262;SDS011;17892;52.080;9.006;2022-08-19T15:04:12;1.00;;;0.85;;
31262;SDS011;17892;52.080;9.006;2022-08-19T15:06:38;1.42;;;0.82;;
31262;SDS011;17892;52.080;9.006;2022-08-19T15:09:05;1.83;;;0.65;;
31262;SDS011;17892;52.080;9.006;2022-08-19T15:11:31;1.70;;;0.95;;
31262;SDS011;17892;52.080;9.006;2022-08-19T15:13:57;1.55;;;1.02;;